createdAt,value
2017-08-21T00:00:49.460Z,22.75
2017-08-21T00:05:31.513Z,22.67
2017-08-21T00:07:44.497Z,22.52
2017-08-21T00:09:55.919Z,22.53
2017-08-21T00:12:08.879Z,22.70
2017-08-21T00:14:15.184Z,22.52
2017-08-21T00:16:20.904Z,22.70
2017-08-21T00:18:28.708Z,22.68
2017-08-21T00:20:36.838Z,22.72
2017-08-21T00:22:57.663Z,22.85
2017-08-21T00:25:11.725Z,22.75
2017-08-21T00:27:28.301Z,22.50
2017-08-21T00:29:36.028Z,22.70
2017-08-21T00:31:43.360Z,22.36
2017-08-21T00:33:51.130Z,22.67
2017-08-21T00:36:03.466Z,22.58
2017-08-21T00:38:09.125Z,22.67
2017-08-21T00:40:18.251Z,22.49
2017-08-21T00:42:24.460Z,22.44
2017-08-21T00:44:33.551Z,22.67
2017-08-21T00:46:40.753Z,22.50
2017-08-21T00:48:47.691Z,22.57
2017-08-21T00:51:05.678Z,22.40
2017-08-21T00:53:13.454Z,22.42
2017-08-21T00:55:19.748Z,22.69
2017-08-21T00:57:27.470Z,22.54
2017-08-21T00:59:34.993Z,22.48
2017-08-21T01:03:54.524Z,22.63
2017-08-21T01:06:03.924Z,22.71
2017-08-21T01:08:14.873Z,22.53
2017-08-21T01:12:41.447Z,22.59
2017-08-21T01:14:51.575Z,22.82
2017-08-21T01:16:58.284Z,22.56
2017-08-21T01:19:11.529Z,22.74
2017-08-21T01:21:18.795Z,22.32
2017-08-21T01:23:28.742Z,22.27
2017-08-21T01:25:36.421Z,22.62
2017-08-21T01:27:47.761Z,22.65
2017-08-21T01:30:12.372Z,22.30
2017-08-21T01:32:36.508Z,22.61
2017-08-21T01:34:42.926Z,22.77
2017-08-21T01:36:48.931Z,22.25
2017-08-21T01:38:56.223Z,22.48
2017-08-21T01:41:07.912Z,22.65
2017-08-21T01:43:17.377Z,22.97
2017-08-21T01:45:25.336Z,22.59
2017-08-21T01:47:32.444Z,22.77
2017-08-21T01:49:39.032Z,22.64
2017-08-21T01:51:49.042Z,22.62
2017-08-21T01:53:58.556Z,22.71
2017-08-21T01:56:07.065Z,22.24
2017-08-21T01:58:16.635Z,22.16
2017-08-21T02:00:22.442Z,22.44
2017-08-21T02:02:29.653Z,22.56
2017-08-21T02:04:36.472Z,22.66
2017-08-21T02:06:42.766Z,22.52
2017-08-21T02:08:58.001Z,22.39
2017-08-21T02:11:10.827Z,22.03
2017-08-21T02:13:18.254Z,22.44
2017-08-21T02:15:25.018Z,22.39
2017-08-21T02:17:31.293Z,22.83
2017-08-21T02:19:45.474Z,22.36
2017-08-21T02:21:56.025Z,22.26
2017-08-21T02:24:06.062Z,22.37
2017-08-21T02:26:12.217Z,22.51
2017-08-21T02:28:18.871Z,22.55
2017-08-21T02:30:27.230Z,21.92
2017-08-21T02:32:33.983Z,21.63
2017-08-21T02:34:42.373Z,21.92
2017-08-21T02:36:57.357Z,21.66
2017-08-21T02:39:31.056Z,22.40
2017-08-21T02:41:36.864Z,22.69
2017-08-21T02:43:43.168Z,22.94
2017-08-21T02:45:51.872Z,23.20
2017-08-21T02:48:01.831Z,22.91
2017-08-21T02:50:11.305Z,23.23
2017-08-21T02:52:17.128Z,23.42
2017-08-21T02:54:25.879Z,22.78
2017-08-21T02:56:32.141Z,22.46
2017-08-21T02:58:39.144Z,22.25
2017-08-21T03:00:45.861Z,22.28
2017-08-21T03:02:54.546Z,22.20
2017-08-21T03:05:07.659Z,21.65
2017-08-21T03:07:14.682Z,21.19
2017-08-21T03:09:20.707Z,21.64
2017-08-21T03:11:27.185Z,21.97
2017-08-21T03:13:34.628Z,22.94
2017-08-21T03:15:41.745Z,23.12
2017-08-21T03:17:49.506Z,23.34
2017-08-21T03:19:58.506Z,23.33
2017-08-21T03:22:09.284Z,22.27
2017-08-21T03:24:16.430Z,21.91
2017-08-21T03:26:22.112Z,21.85
2017-08-21T03:28:27.785Z,21.41
2017-08-21T03:30:33.734Z,22.16
2017-08-21T03:32:40.254Z,21.51
2017-08-21T03:34:49.157Z,21.75
2017-08-21T03:36:56.717Z,21.28
2017-08-21T03:39:06.637Z,21.35
2017-08-21T03:41:12.543Z,21.17
2017-08-21T03:43:18.574Z,21.00
2017-08-21T03:45:24.437Z,20.87
2017-08-21T03:47:32.197Z,21.10
2017-08-21T03:49:38.196Z,20.95
2017-08-21T03:51:48.469Z,21.17
2017-08-21T03:54:03.170Z,21.20
2017-08-21T03:56:11.410Z,21.12
2017-08-21T03:58:26.404Z,21.41
2017-08-21T04:00:33.535Z,21.39
2017-08-21T04:02:39.970Z,21.16
2017-08-21T04:04:50.037Z,21.38
2017-08-21T04:06:56.402Z,21.13
2017-08-21T04:09:06.705Z,21.36
2017-08-21T04:11:12.080Z,21.15
2017-08-21T04:13:17.881Z,21.51
2017-08-21T04:15:23.654Z,21.87
2017-08-21T04:17:31.001Z,21.43
2017-08-21T04:19:36.593Z,20.85
2017-08-21T04:21:45.731Z,21.17
2017-08-21T04:23:54.224Z,21.32
2017-08-21T04:26:05.052Z,21.73
2017-08-21T04:28:16.499Z,20.81
2017-08-21T04:30:22.311Z,21.47
2017-08-21T04:32:33.757Z,21.25
2017-08-21T04:34:40.813Z,21.43
2017-08-21T04:36:49.680Z,22.19
2017-08-21T04:38:57.092Z,21.85
2017-08-21T04:41:10.553Z,21.88
2017-08-21T04:43:16.178Z,22.01
2017-08-21T04:45:21.651Z,21.88
2017-08-21T04:47:32.597Z,22.09
2017-08-21T04:51:53.434Z,21.74
2017-08-21T04:54:02.281Z,22.35
2017-08-21T04:56:08.771Z,22.33
2017-08-21T04:58:17.796Z,22.01
2017-08-21T05:00:26.525Z,22.41
2017-08-21T05:02:37.060Z,22.57
2017-08-21T05:04:45.290Z,22.36
2017-08-21T05:06:54.428Z,22.47
2017-08-21T05:09:03.580Z,22.57
2017-08-21T05:11:09.262Z,22.39
2017-08-21T05:13:18.366Z,22.16
2017-08-21T05:15:24.817Z,22.33
2017-08-21T05:17:33.751Z,22.58
2017-08-21T05:23:04.524Z,22.44
2017-08-21T05:25:10.507Z,22.57
2017-08-21T05:29:43.586Z,22.32
2017-08-21T05:31:51.810Z,22.64
2017-08-21T05:34:04.405Z,22.84
2017-08-21T05:36:11.056Z,22.37
2017-08-21T05:38:17.703Z,22.52
2017-08-21T05:40:26.154Z,22.15
2017-08-21T05:42:36.158Z,22.72
2017-08-21T05:44:46.669Z,22.10
2017-08-21T05:46:54.112Z,22.38
2017-08-21T05:49:07.725Z,22.25
2017-08-21T05:51:15.633Z,22.30
2017-08-21T05:53:21.227Z,22.12
2017-08-21T05:55:28.236Z,22.40
2017-08-21T05:57:36.409Z,22.37
2017-08-21T05:59:42.609Z,22.17
2017-08-21T06:01:51.986Z,22.24
2017-08-21T06:04:06.252Z,22.24
2017-08-21T06:06:14.236Z,22.43
2017-08-21T06:08:21.403Z,21.79
2017-08-21T06:10:27.411Z,22.55
2017-08-21T06:12:35.010Z,21.99
2017-08-21T06:16:57.517Z,22.56
2017-08-21T06:19:07.628Z,22.51
2017-08-21T06:21:15.418Z,22.49
2017-08-21T06:23:23.202Z,22.29
2017-08-21T06:25:33.249Z,22.38
2017-08-21T06:27:54.874Z,22.56
2017-08-21T06:30:09.825Z,22.63
2017-08-21T06:32:18.565Z,22.66
2017-08-21T06:34:27.495Z,22.47
2017-08-21T06:37:09.238Z,22.38
2017-08-21T06:39:15.495Z,22.50
2017-08-21T06:41:21.938Z,22.42
2017-08-21T06:43:31.541Z,22.39
2017-08-21T06:45:38.348Z,22.65
2017-08-21T06:47:48.401Z,22.45
2017-08-21T06:49:55.284Z,22.42
2017-08-21T06:52:08.379Z,22.48
2017-08-21T06:54:14.277Z,23.10
2017-08-21T06:56:21.440Z,22.68
2017-08-21T06:58:29.336Z,22.63
2017-08-21T07:00:36.684Z,22.61
2017-08-21T07:02:43.448Z,22.66
2017-08-21T07:04:49.469Z,22.48
2017-08-21T07:06:58.914Z,22.39
2017-08-21T07:09:12.026Z,22.18
2017-08-21T07:11:22.585Z,22.59
2017-08-21T07:13:30.123Z,22.66
2017-08-21T07:15:39.397Z,22.71
2017-08-21T07:17:50.262Z,22.44
2017-08-21T07:20:02.920Z,22.63
2017-08-21T07:22:10.609Z,22.69
2017-08-21T07:24:21.270Z,22.78
2017-08-21T07:26:31.143Z,22.58
2017-08-21T07:28:38.447Z,22.64
2017-08-21T07:30:48.207Z,22.42
2017-08-21T07:32:56.990Z,22.82
2017-08-21T07:35:07.162Z,22.97
2017-08-21T07:37:15.178Z,22.87
2017-08-21T07:39:22.700Z,22.81
2017-08-21T07:41:31.853Z,23.10
2017-08-21T07:43:39.340Z,23.01
2017-08-21T07:45:51.368Z,23.34
2017-08-21T07:50:11.614Z,23.36
2017-08-21T07:52:17.914Z,23.37
2017-08-21T07:54:24.381Z,24.14
2017-08-21T07:56:31.414Z,24.47
2017-08-21T07:58:37.741Z,24.47
2017-08-21T08:00:45.880Z,24.64
2017-08-21T08:02:53.416Z,24.52
2017-08-21T08:05:06.413Z,24.69
2017-08-21T08:07:14.275Z,24.69
2017-08-21T08:09:21.828Z,23.93
2017-08-21T08:11:30.063Z,24.17
2017-08-21T08:13:37.808Z,23.82
2017-08-21T08:15:44.816Z,23.68
2017-08-21T08:17:53.814Z,24.12
2017-08-21T08:20:03.309Z,23.84
2017-08-21T08:22:09.319Z,24.24
2017-08-21T08:24:15.820Z,23.74
2017-08-21T08:26:24.113Z,23.74
2017-08-21T08:28:35.579Z,24.13
2017-08-21T08:30:41.723Z,24.49
2017-08-21T08:32:57.850Z,24.45
2017-08-21T08:37:31.979Z,24.37
2017-08-21T08:39:41.302Z,24.08
2017-08-21T08:41:49.936Z,24.06
2017-08-21T08:44:27.068Z,24.63
2017-08-21T08:46:37.181Z,24.37
2017-08-21T08:48:45.894Z,23.89
2017-08-21T08:51:20.294Z,23.88
2017-08-21T08:53:46.326Z,24.33
2017-08-21T08:56:00.090Z,24.26
2017-08-21T08:58:14.017Z,24.03
2017-08-21T09:00:20.391Z,24.15
2017-08-21T09:02:27.137Z,23.68
2017-08-21T09:04:32.881Z,24.08
2017-08-21T09:06:39.012Z,23.93
2017-08-21T09:08:44.908Z,24.03
2017-08-21T09:13:06.981Z,24.47
2017-08-21T09:15:17.715Z,24.50
2017-08-21T09:17:24.970Z,24.60
2017-08-21T09:19:31.394Z,24.55
2017-08-21T09:21:37.307Z,24.56
2017-08-21T09:23:43.959Z,24.97
2017-08-21T09:25:51.245Z,24.48
2017-08-21T09:27:58.868Z,24.90
2017-08-21T09:30:08.283Z,24.83
2017-08-21T09:32:14.022Z,24.65
2017-08-21T09:34:20.275Z,24.01
2017-08-21T09:36:26.361Z,23.98
2017-08-21T09:38:32.262Z,24.17
2017-08-21T09:40:38.340Z,25.00
2017-08-21T09:42:46.180Z,25.05
2017-08-21T09:44:51.796Z,25.30
2017-08-21T09:46:58.072Z,25.33
2017-08-21T09:49:06.716Z,24.95
2017-08-21T09:51:12.786Z,24.92
2017-08-21T09:53:18.562Z,25.13
2017-08-21T09:55:24.335Z,24.92
2017-08-21T09:57:30.404Z,25.20
2017-08-21T09:59:36.543Z,24.59
2017-08-21T10:01:42.600Z,23.99
2017-08-21T10:03:51.919Z,24.31
2017-08-21T10:05:59.103Z,24.65
2017-08-21T10:08:08.380Z,24.85
2017-08-21T10:10:14.424Z,24.42
2017-08-21T10:12:20.869Z,24.53
2017-08-21T10:14:27.351Z,24.77
2017-08-21T10:16:33.023Z,24.40
2017-08-21T10:18:38.667Z,25.33
2017-08-21T10:20:45.244Z,24.93
2017-08-21T10:22:52.464Z,24.71
2017-08-21T10:25:02.286Z,24.35
2017-08-21T10:27:09.775Z,24.99
2017-08-21T10:29:15.466Z,24.77
2017-08-21T10:31:21.684Z,24.61
2017-08-21T10:33:27.968Z,24.51
2017-08-21T10:35:33.808Z,24.63
2017-08-21T10:37:39.532Z,25.13
2017-08-21T10:39:48.815Z,25.31
2017-08-21T10:41:56.856Z,25.03
2017-08-21T10:44:06.449Z,25.46
2017-08-21T10:46:12.959Z,25.23
2017-08-21T10:48:19.009Z,25.34
2017-08-21T10:50:24.862Z,24.91
2017-08-21T10:52:31.721Z,24.92
2017-08-21T10:54:37.436Z,24.78
2017-08-21T10:56:43.115Z,24.55
2017-08-21T10:58:51.879Z,24.88
2017-08-21T11:00:59.363Z,24.58
2017-08-21T11:03:08.549Z,24.44
2017-08-21T11:05:14.262Z,24.90
2017-08-21T11:07:20.337Z,25.42
2017-08-21T11:09:26.148Z,25.32
2017-08-21T11:11:32.708Z,25.82
2017-08-21T11:13:38.387Z,26.16
2017-08-21T11:15:44.911Z,25.89
2017-08-21T11:17:53.051Z,25.54
2017-08-21T11:20:02.390Z,25.81
2017-08-21T11:22:08.614Z,25.59
2017-08-21T11:24:15.141Z,25.96
2017-08-21T11:26:21.049Z,25.63
2017-08-21T11:28:27.143Z,25.32
2017-08-21T11:30:32.777Z,25.29
2017-08-21T11:32:38.845Z,24.95
2017-08-21T11:34:46.764Z,24.73
2017-08-21T11:36:56.004Z,25.10
2017-08-21T11:39:08.843Z,25.88
2017-08-21T11:41:14.651Z,26.08
2017-08-21T11:43:21.175Z,25.81
2017-08-21T11:45:28.717Z,25.66
2017-08-21T11:47:34.523Z,25.45
2017-08-21T11:49:40.697Z,25.26
2017-08-21T11:51:48.093Z,25.02
2017-08-21T11:53:56.363Z,25.40
2017-08-21T11:56:06.037Z,25.23
2017-08-21T11:58:13.071Z,25.18
2017-08-21T12:00:18.965Z,25.49
2017-08-21T12:02:26.518Z,25.65
2017-08-21T12:04:32.604Z,25.13
2017-08-21T12:06:39.227Z,25.02
2017-08-21T12:08:45.434Z,24.83
2017-08-21T12:10:59.154Z,25.18
2017-08-21T12:13:08.575Z,24.97
2017-08-21T12:15:14.789Z,25.51
2017-08-21T12:17:20.326Z,26.60
2017-08-21T12:19:26.202Z,27.26
2017-08-21T12:21:32.637Z,27.65
2017-08-21T12:23:39.308Z,27.79
2017-08-21T12:25:47.733Z,28.27
2017-08-21T12:27:55.525Z,28.92
2017-08-21T12:30:04.750Z,29.25
2017-08-21T12:32:10.607Z,29.00
2017-08-21T12:34:16.757Z,29.74
2017-08-21T12:36:22.656Z,29.10
2017-08-21T12:38:28.869Z,29.81
2017-08-21T12:40:35.241Z,30.20
2017-08-21T12:42:41.058Z,30.28
2017-08-21T12:44:51.986Z,30.37
2017-08-21T12:47:02.265Z,30.39
2017-08-21T12:49:13.585Z,30.70
2017-08-21T12:51:21.008Z,31.00
2017-08-21T12:53:30.120Z,31.07
2017-08-21T12:55:37.014Z,31.38
2017-08-21T12:57:44.800Z,31.20
2017-08-21T12:59:52.611Z,31.65
2017-08-21T13:01:58.553Z,31.72
2017-08-21T13:04:07.978Z,31.56
2017-08-21T13:08:48.892Z,31.27
2017-08-21T13:11:12.052Z,30.91
2017-08-21T13:13:17.751Z,30.52
2017-08-21T13:15:23.495Z,31.48
2017-08-21T13:17:30.182Z,29.76
2017-08-21T13:19:36.596Z,28.96
2017-08-21T13:21:42.967Z,28.92
2017-08-21T13:23:48.722Z,30.95
2017-08-21T13:25:57.934Z,29.58
2017-08-21T13:28:05.870Z,28.20
2017-08-21T13:30:12.397Z,27.98
2017-08-21T13:32:18.144Z,28.00
2017-08-21T13:34:23.940Z,30.38
2017-08-21T13:36:29.633Z,28.76
2017-08-21T13:38:35.394Z,27.86
2017-08-21T13:40:41.726Z,29.20
2017-08-21T13:42:54.127Z,30.27
2017-08-21T13:44:59.860Z,31.45
2017-08-21T13:47:12.249Z,30.87
2017-08-21T13:49:18.780Z,29.20
2017-08-21T13:51:25.464Z,28.67
2017-08-21T13:53:32.017Z,30.52
2017-08-21T13:55:38.399Z,31.58
2017-08-21T13:57:46.691Z,32.08
2017-08-21T13:59:53.877Z,31.97
2017-08-21T14:02:04.449Z,31.43
2017-08-21T14:04:11.407Z,30.08
2017-08-21T14:06:17.662Z,30.34
2017-08-21T14:08:23.838Z,30.21
2017-08-21T14:10:29.577Z,30.90
2017-08-21T14:12:36.480Z,32.05
2017-08-21T14:14:46.916Z,32.13
2017-08-21T14:16:54.779Z,31.67
2017-08-21T14:19:03.428Z,30.22
2017-08-21T14:21:09.226Z,31.07
2017-08-21T14:23:14.971Z,32.33
2017-08-21T14:25:21.757Z,32.14
2017-08-21T14:29:59.525Z,32.06
2017-08-21T14:36:42.317Z,31.34
2017-08-21T14:38:50.006Z,30.63
2017-08-21T14:40:56.879Z,29.83
2017-08-21T14:43:04.459Z,30.75
2017-08-21T14:45:11.146Z,30.28
2017-08-21T14:47:17.167Z,29.50
2017-08-21T14:49:23.042Z,29.87
2017-08-21T14:53:39.677Z,29.89
2017-08-21T14:55:51.343Z,29.55
2017-08-21T14:57:59.504Z,29.23
2017-08-21T15:00:14.409Z,29.26
2017-08-21T15:02:20.275Z,29.48
2017-08-21T15:04:26.865Z,29.71
2017-08-21T15:06:33.395Z,29.65
2017-08-21T15:08:39.488Z,29.83
2017-08-21T15:10:52.740Z,29.98
2017-08-21T15:13:03.881Z,29.78
2017-08-21T15:15:09.956Z,29.88
2017-08-21T15:17:15.763Z,29.93
2017-08-21T15:19:22.774Z,29.88
2017-08-21T15:21:28.522Z,29.73
2017-08-21T15:23:35.043Z,29.38
2017-08-21T15:25:41.695Z,29.17
2017-08-21T15:27:49.364Z,29.03
2017-08-21T15:29:59.560Z,28.99
2017-08-21T15:32:11.915Z,28.80
2017-08-21T15:34:17.873Z,28.53
2017-08-21T15:36:25.869Z,28.58
2017-08-21T15:38:32.243Z,28.11
2017-08-21T15:40:40.474Z,28.40
2017-08-21T15:42:45.909Z,28.39
2017-08-21T15:44:52.556Z,28.47
2017-08-21T15:47:01.886Z,28.27
2017-08-21T15:49:08.633Z,28.32
2017-08-21T15:56:22.836Z,27.81
2017-08-21T15:58:40.664Z,27.88
2017-08-21T16:00:49.234Z,27.47
2017-08-21T16:02:56.358Z,27.81
2017-08-21T16:05:04.622Z,27.58
2017-08-21T16:07:10.676Z,27.67
2017-08-21T16:09:16.516Z,27.58
2017-08-21T16:11:21.958Z,27.52
2017-08-21T16:13:28.969Z,27.55
2017-08-21T16:15:34.905Z,27.50
2017-08-21T16:17:40.713Z,27.27
2017-08-21T16:19:53.836Z,27.19
2017-08-21T16:22:03.793Z,27.44
2017-08-21T16:24:10.055Z,27.48
2017-08-21T16:26:16.200Z,27.46
2017-08-21T16:28:21.503Z,27.39
2017-08-21T16:30:28.344Z,27.32
2017-08-21T16:32:34.621Z,26.94
2017-08-21T16:34:40.768Z,26.65
2017-08-21T16:36:49.146Z,27.11
2017-08-21T16:38:58.056Z,27.35
2017-08-21T16:41:08.152Z,27.46
2017-08-21T16:43:14.679Z,27.59
2017-08-21T16:45:20.786Z,27.72
2017-08-21T16:47:26.560Z,27.59
2017-08-21T16:49:34.058Z,27.81
2017-08-21T16:51:40.863Z,27.87
2017-08-21T16:53:50.862Z,27.81
2017-08-21T16:56:07.087Z,27.88
2017-08-21T16:58:13.404Z,27.85
2017-08-21T17:00:19.947Z,27.86
2017-08-21T17:02:26.200Z,27.93
2017-08-21T17:04:34.301Z,27.92
2017-08-21T17:06:40.674Z,27.86
2017-08-21T17:08:55.825Z,27.72
2017-08-21T17:11:04.637Z,27.68
2017-08-21T17:13:10.661Z,27.78
2017-08-21T17:15:18.867Z,27.61
2017-08-21T17:17:25.392Z,27.13
2017-08-21T17:19:32.131Z,26.93
2017-08-21T17:21:39.119Z,27.10
2017-08-21T17:23:48.386Z,26.80
2017-08-21T17:25:57.295Z,26.86
2017-08-21T17:28:12.744Z,27.36
2017-08-21T17:30:22.128Z,27.38
2017-08-21T17:33:06.095Z,27.38
2017-08-21T17:35:14.526Z,27.27
2017-08-21T17:37:21.114Z,27.30
2017-08-21T17:39:29.569Z,26.39
2017-08-21T17:41:38.520Z,26.61
2017-08-21T17:43:46.744Z,26.47
2017-08-21T17:45:55.652Z,26.59
2017-08-21T17:48:06.928Z,26.18
2017-08-21T17:50:17.191Z,25.89
2017-08-21T17:52:23.485Z,26.14
2017-08-21T17:54:29.466Z,25.30
2017-08-21T17:56:40.240Z,24.93
2017-08-21T17:58:48.805Z,25.06
2017-08-21T18:00:58.686Z,25.02
2017-08-21T18:03:06.831Z,25.35
2017-08-21T18:05:14.365Z,24.94
2017-08-21T18:07:20.139Z,24.38
2017-08-21T18:09:27.062Z,24.68
2017-08-21T18:11:34.768Z,24.98
2017-08-21T18:13:40.954Z,24.89
2017-08-21T18:15:47.940Z,24.81
2017-08-21T18:17:53.660Z,24.40
2017-08-21T18:20:01.986Z,24.30
2017-08-21T18:22:09.892Z,24.33
2017-08-21T18:24:16.993Z,24.35
2017-08-21T18:26:22.877Z,24.37
2017-08-21T18:28:28.501Z,24.31
2017-08-21T18:30:34.072Z,24.32
2017-08-21T18:32:39.969Z,24.20
2017-08-21T18:34:50.429Z,24.09
2017-08-21T18:37:00.793Z,24.07
2017-08-21T18:39:07.556Z,24.18
2017-08-21T18:41:14.023Z,24.11
2017-08-21T18:43:19.660Z,23.91
2017-08-21T18:45:25.850Z,23.71
2017-08-21T18:47:31.778Z,23.79
2017-08-21T18:49:37.536Z,23.89
2017-08-21T18:51:44.656Z,23.71
2017-08-21T18:53:53.113Z,23.64
2017-08-21T18:56:04.672Z,23.71
2017-08-21T18:58:11.636Z,23.68
2017-08-21T19:00:18.926Z,23.77
2017-08-21T19:02:24.754Z,23.96
2017-08-21T19:04:32.246Z,23.81
2017-08-21T19:06:38.513Z,23.93
2017-08-21T19:08:44.992Z,23.92
2017-08-21T19:10:50.583Z,23.67
2017-08-21T19:12:56.691Z,23.78
2017-08-21T19:15:10.141Z,23.74
2017-08-21T19:17:16.293Z,23.75
2017-08-21T19:19:22.110Z,23.76
2017-08-21T19:21:27.893Z,23.74
2017-08-21T19:23:33.894Z,23.68
2017-08-21T19:25:40.499Z,23.74
2017-08-21T19:27:54.369Z,23.73
2017-08-21T19:30:16.448Z,23.51
2017-08-21T19:32:25.172Z,23.52
2017-08-21T19:34:37.262Z,23.58
2017-08-21T19:36:42.807Z,23.52
2017-08-21T19:38:49.805Z,23.44
2017-08-21T19:40:55.421Z,23.53
2017-08-21T19:43:07.062Z,23.61
2017-08-21T19:45:13.182Z,23.32
2017-08-21T19:47:19.143Z,23.35
2017-08-21T19:49:24.737Z,23.61
2017-08-21T19:51:31.642Z,23.19
2017-08-21T19:59:13.921Z,22.98
2017-08-21T20:03:32.144Z,22.91
2017-08-21T20:05:37.906Z,23.08
2017-08-21T20:07:45.209Z,23.20
2017-08-21T20:10:00.859Z,23.19
2017-08-21T20:12:06.636Z,22.92
2017-08-21T20:14:13.545Z,22.78
2017-08-21T20:16:20.005Z,22.81
2017-08-21T20:18:26.328Z,22.84
2017-08-21T20:20:33.696Z,22.54
2017-08-21T20:22:39.929Z,23.24
2017-08-21T20:24:47.662Z,23.66
2017-08-21T20:26:56.558Z,23.27
2017-08-21T20:29:05.308Z,23.37
2017-08-21T20:31:10.981Z,23.45
2017-08-21T20:33:16.672Z,23.83
2017-08-21T20:35:22.726Z,23.40
2017-08-21T20:37:29.141Z,22.44
2017-08-21T20:39:35.093Z,22.52
2017-08-21T20:41:41.178Z,23.01
2017-08-21T20:43:49.512Z,23.52
2017-08-21T20:45:56.008Z,23.36
2017-08-21T20:48:04.891Z,23.84
2017-08-21T20:50:11.121Z,23.74
2017-08-21T20:52:17.067Z,24.03
2017-08-21T20:54:22.814Z,24.09
2017-08-21T20:56:30.847Z,24.06
2017-08-21T20:58:36.826Z,24.36
2017-08-21T21:00:44.031Z,24.31
2017-08-21T21:02:51.030Z,23.79
2017-08-21T21:04:58.618Z,23.69
2017-08-21T21:07:07.846Z,23.71
2017-08-21T21:09:14.928Z,23.12
2017-08-21T21:11:20.679Z,23.40
2017-08-21T21:13:28.010Z,23.34
2017-08-21T21:15:34.103Z,23.05
2017-08-21T21:17:39.872Z,23.46
2017-08-21T21:19:49.137Z,23.36
2017-08-21T21:21:56.941Z,23.52
2017-08-21T21:24:05.718Z,23.63
2017-08-21T21:26:11.852Z,24.02
2017-08-21T21:28:17.708Z,23.75
2017-08-21T21:30:23.364Z,24.13
2017-08-21T21:32:29.794Z,24.09
2017-08-21T21:34:35.887Z,24.33
2017-08-21T21:37:49.530Z,23.81
2017-08-21T21:42:08.947Z,23.45
2017-08-21T21:44:14.548Z,23.36
2017-08-21T21:46:20.262Z,23.91
2017-08-21T21:48:25.962Z,23.20
2017-08-21T21:50:32.452Z,23.23
2017-08-21T21:52:38.403Z,23.05
2017-08-21T21:54:43.943Z,23.09
2017-08-21T21:56:51.697Z,22.77
2017-08-21T21:58:57.695Z,23.01
2017-08-21T22:01:06.388Z,23.61
2017-08-21T22:03:12.441Z,23.81
2017-08-21T22:05:20.550Z,23.77
2017-08-21T22:07:28.390Z,23.61
2017-08-21T22:09:38.070Z,23.44
2017-08-21T22:11:46.346Z,23.37
2017-08-21T22:13:53.525Z,23.69
2017-08-21T22:19:08.212Z,23.19
2017-08-21T22:21:44.490Z,22.90
2017-08-21T22:26:16.085Z,22.58
2017-08-21T22:28:22.737Z,22.28
2017-08-21T22:30:45.396Z,22.13
2017-08-21T22:32:53.335Z,22.15
2017-08-21T22:35:04.620Z,21.69
2017-08-21T22:37:11.011Z,22.15
2017-08-21T22:39:17.283Z,22.09
2017-08-21T22:41:24.455Z,22.55
2017-08-21T22:43:30.095Z,22.34
2017-08-21T22:45:36.028Z,21.89
2017-08-21T22:47:43.647Z,22.12
2017-08-21T22:49:52.029Z,22.68
2017-08-21T22:51:58.245Z,22.54
2017-08-21T22:54:07.075Z,22.78
2017-08-21T22:56:13.245Z,22.33
2017-08-21T22:58:19.286Z,22.05
2017-08-21T23:00:25.837Z,21.40
2017-08-21T23:02:31.447Z,22.61
2017-08-21T23:04:37.225Z,22.02
2017-08-21T23:06:42.834Z,22.33
2017-08-21T23:08:49.026Z,22.27
2017-08-21T23:10:55.321Z,22.76
2017-08-21T23:13:03.729Z,22.34
2017-08-21T23:15:10.032Z,22.30
2017-08-21T23:17:16.057Z,22.36
2017-08-21T23:19:22.091Z,22.52
2017-08-21T23:21:28.435Z,22.45
2017-08-21T23:23:35.497Z,22.45
2017-08-21T23:25:41.857Z,22.70
2017-08-21T23:27:48.816Z,22.56
2017-08-21T23:29:55.521Z,22.61
2017-08-21T23:32:03.277Z,22.78
2017-08-21T23:34:09.021Z,22.76
2017-08-21T23:36:15.214Z,22.18
2017-08-21T23:38:21.008Z,22.61
2017-08-21T23:40:26.930Z,21.91
2017-08-21T23:42:32.379Z,22.41
2017-08-21T23:44:40.555Z,22.42
2017-08-21T23:47:04.347Z,22.32
2017-08-21T23:49:13.800Z,21.75
2017-08-21T23:51:21.249Z,22.12
2017-08-21T23:53:26.780Z,22.34
2017-08-21T23:55:33.354Z,23.01
2017-08-21T23:57:39.487Z,22.11
2017-08-21T23:59:48.986Z,22.10
